createdAt,value
2022-12-28T00:00:22.788Z,3.40
2022-12-28T00:03:26.554Z,3.60
2022-12-28T00:06:32.988Z,3.30
2022-12-28T00:09:38.324Z,2.97
2022-12-28T00:12:42.152Z,3.40
2022-12-28T00:15:46.023Z,2.97
2022-12-28T00:18:49.711Z,3.10
2022-12-28T00:21:56.434Z,3.13
2022-12-28T00:25:01.610Z,2.97
2022-12-28T00:28:05.811Z,3.00
2022-12-28T00:31:09.666Z,3.20
2022-12-28T00:34:13.458Z,2.70
2022-12-28T00:37:17.726Z,3.10
2022-12-28T00:40:24.279Z,3.13
2022-12-28T00:43:28.137Z,3.10
2022-12-28T00:46:31.958Z,3.30
2022-12-28T00:49:35.627Z,3.57
2022-12-28T00:52:39.225Z,3.37
2022-12-28T00:55:44.998Z,3.10
2022-12-28T00:58:49.032Z,3.53
2022-12-28T01:01:52.980Z,3.37
2022-12-28T01:04:56.686Z,3.10
2022-12-28T01:08:00.361Z,2.90
2022-12-28T01:11:10.208Z,2.87
2022-12-28T01:14:13.750Z,3.60
2022-12-28T01:17:17.580Z,3.00
2022-12-28T01:20:21.416Z,2.70
2022-12-28T01:23:25.107Z,3.20
2022-12-28T01:26:31.047Z,3.10
2022-12-28T01:29:34.830Z,2.83
2022-12-28T01:32:38.636Z,3.00
2022-12-28T01:35:42.354Z,2.80
2022-12-28T01:38:46.807Z,3.17
2022-12-28T01:41:51.715Z,3.37
2022-12-28T01:44:55.823Z,2.83
2022-12-28T01:47:59.621Z,3.40
2022-12-28T01:51:03.364Z,3.17
2022-12-28T01:54:07.424Z,2.93
2022-12-28T01:57:13.405Z,2.70
2022-12-28T02:00:19.044Z,2.90
2022-12-28T02:03:25.869Z,2.53
2022-12-28T02:06:30.204Z,2.60
2022-12-28T02:09:40.155Z,2.50
2022-12-28T02:12:46.518Z,3.40
2022-12-28T02:15:50.583Z,2.40
2022-12-28T02:18:55.677Z,2.50
2022-12-28T02:22:27.085Z,2.90
2022-12-28T02:25:56.419Z,2.73
2022-12-28T02:29:28.163Z,3.00
2022-12-28T02:32:44.365Z,2.73
2022-12-28T02:35:54.491Z,2.50
2022-12-28T02:39:04.079Z,3.03
2022-12-28T02:42:11.103Z,2.33
2022-12-28T02:45:52.173Z,2.80
2022-12-28T02:49:13.113Z,2.63
2022-12-28T02:52:28.579Z,3.00
2022-12-28T02:56:07.059Z,2.27
2022-12-28T02:59:28.729Z,2.67
2022-12-28T03:02:58.592Z,2.30
2022-12-28T03:06:30.541Z,2.47
2022-12-28T03:09:41.946Z,2.00
2022-12-28T03:12:51.456Z,2.30
2022-12-28T03:16:02.381Z,2.33
2022-12-28T03:19:27.598Z,2.40
2022-12-28T03:22:55.981Z,2.73
2022-12-28T03:26:20.893Z,2.47
2022-12-28T03:29:43.921Z,2.40
2022-12-28T03:32:48.599Z,2.20
2022-12-28T03:36:03.535Z,2.43
2022-12-28T03:39:15.265Z,2.33
2022-12-28T03:42:44.390Z,2.73
2022-12-28T03:45:53.530Z,2.40
2022-12-28T03:49:00.602Z,2.40
2022-12-28T03:52:09.486Z,2.50
2022-12-28T03:55:14.906Z,2.90
2022-12-28T03:58:21.643Z,2.57
2022-12-28T04:01:26.622Z,2.97
2022-12-28T04:04:31.196Z,2.90
2022-12-28T04:07:36.598Z,2.70
2022-12-28T04:10:40.296Z,2.70
2022-12-28T04:13:45.758Z,3.00
2022-12-28T04:16:51.280Z,2.70
2022-12-28T04:19:56.934Z,2.33
2022-12-28T04:23:02.104Z,2.50
2022-12-28T04:26:08.236Z,2.37
2022-12-28T04:29:12.233Z,2.53
2022-12-28T04:32:24.395Z,2.67
2022-12-28T04:35:28.174Z,3.10
2022-12-28T04:38:34.555Z,3.00
2022-12-28T04:41:38.407Z,3.00
2022-12-28T04:44:42.227Z,3.10
2022-12-28T04:47:45.990Z,2.90
2022-12-28T04:50:49.809Z,3.17
2022-12-28T04:53:56.783Z,2.90
2022-12-28T04:57:00.293Z,2.93
2022-12-28T05:00:04.180Z,2.70
2022-12-28T05:03:07.795Z,2.63
2022-12-28T05:06:14.643Z,3.17
2022-12-28T05:09:19.942Z,3.43
2022-12-28T05:12:23.791Z,3.13
2022-12-28T05:15:27.562Z,3.00
2022-12-28T05:18:31.220Z,4.03
2022-12-28T05:21:34.994Z,4.20
2022-12-28T05:24:40.051Z,3.30
2022-12-28T05:27:43.572Z,3.20
2022-12-28T05:30:47.184Z,3.23
2022-12-28T05:33:51.482Z,3.40
2022-12-28T05:36:55.004Z,3.10
2022-12-28T05:40:00.045Z,3.20
2022-12-28T05:43:03.754Z,3.20
2022-12-28T05:46:09.536Z,3.73
2022-12-28T05:49:13.306Z,4.57
2022-12-28T05:52:16.933Z,3.80
2022-12-28T05:55:22.100Z,3.60
2022-12-28T05:58:25.900Z,3.40
2022-12-28T06:01:32.022Z,4.03
2022-12-28T06:04:35.871Z,3.60
2022-12-28T06:07:39.672Z,3.70
2022-12-28T06:10:44.886Z,3.80
2022-12-28T06:13:48.991Z,4.47
2022-12-28T06:16:54.040Z,3.87
2022-12-28T06:19:57.716Z,4.00
2022-12-28T06:23:01.348Z,4.50
2022-12-28T06:26:08.382Z,4.73
2022-12-28T06:29:12.884Z,4.10
2022-12-28T06:32:16.575Z,4.67
2022-12-28T06:35:20.278Z,5.73
2022-12-28T06:38:23.875Z,4.70
2022-12-28T06:41:29.991Z,4.90
2022-12-28T06:44:35.787Z,4.20
2022-12-28T06:47:43.029Z,4.93
2022-12-28T06:50:56.171Z,4.03
2022-12-28T06:54:00.369Z,4.73
2022-12-28T06:57:05.537Z,5.67
2022-12-28T07:00:11.622Z,5.00
2022-12-28T07:03:15.408Z,5.10
2022-12-28T07:06:21.420Z,6.17
2022-12-28T07:09:25.204Z,8.10
2022-12-28T07:12:30.451Z,8.37
2022-12-28T07:15:34.421Z,13.23
2022-12-28T07:18:39.267Z,24.30
2022-12-28T07:21:42.972Z,42.37
2022-12-28T07:24:46.665Z,13.83
2022-12-28T07:27:51.933Z,16.43
2022-12-28T07:30:55.609Z,10.77
2022-12-28T07:34:00.982Z,9.70
2022-12-28T07:37:04.742Z,9.03
2022-12-28T07:40:09.994Z,9.80
2022-12-28T07:43:15.132Z,9.87
2022-12-28T07:46:21.291Z,8.63
2022-12-28T07:49:25.130Z,8.40
2022-12-28T07:52:28.979Z,8.90
2022-12-28T07:55:32.728Z,7.67
2022-12-28T07:58:38.049Z,9.60
2022-12-28T08:01:41.980Z,7.90
2022-12-28T08:04:48.825Z,10.13
2022-12-28T08:07:59.824Z,21.07
2022-12-28T08:11:09.252Z,12.03
2022-12-28T08:14:14.559Z,11.00
2022-12-28T08:17:21.220Z,12.50
2022-12-28T08:20:26.138Z,18.70
2022-12-28T08:23:30.188Z,17.63
2022-12-28T08:26:36.151Z,13.87
2022-12-28T08:29:41.444Z,10.50
2022-12-28T08:32:45.153Z,9.00
2022-12-28T08:35:49.052Z,9.67
2022-12-28T08:38:53.227Z,30.63
2022-12-28T08:41:57.566Z,11.60
2022-12-28T08:45:02.984Z,8.97
2022-12-28T08:48:07.425Z,11.10
2022-12-28T08:51:13.589Z,10.07
2022-12-28T08:54:17.707Z,8.63
2022-12-28T08:57:21.414Z,9.70
2022-12-28T09:00:26.583Z,13.47
2022-12-28T09:03:30.380Z,12.13
2022-12-28T09:06:36.433Z,12.53
2022-12-28T09:09:40.134Z,15.93
2022-12-28T09:12:44.014Z,12.33
2022-12-28T09:15:58.324Z,11.53
2022-12-28T09:19:03.514Z,10.53
2022-12-28T09:22:07.321Z,9.30
2022-12-28T09:25:11.268Z,13.53
2022-12-28T09:28:15.344Z,7.97
2022-12-28T09:31:22.634Z,10.17
2022-12-28T09:34:41.679Z,7.73
2022-12-28T09:37:45.439Z,6.30
2022-12-28T09:40:49.191Z,7.23
2022-12-28T09:43:55.572Z,6.97
2022-12-28T09:47:05.873Z,6.83
2022-12-28T09:50:30.431Z,7.30
2022-12-28T09:53:36.665Z,7.23
2022-12-28T09:56:42.913Z,7.07
2022-12-28T09:59:47.923Z,8.30
2022-12-28T10:02:57.026Z,7.20
2022-12-28T10:06:01.271Z,7.27
2022-12-28T10:09:12.205Z,8.30
2022-12-28T10:12:17.634Z,9.63
2022-12-28T10:15:24.272Z,12.20
2022-12-28T10:18:34.592Z,10.27
2022-12-28T10:21:41.301Z,9.30
2022-12-28T10:24:46.220Z,10.13
2022-12-28T10:27:50.111Z,16.20
2022-12-28T10:31:06.416Z,16.43
2022-12-28T10:34:17.720Z,11.90
2022-12-28T10:37:21.959Z,10.90
2022-12-28T10:40:29.260Z,12.90
2022-12-28T10:43:35.900Z,13.23
2022-12-28T10:46:39.988Z,11.43
2022-12-28T10:50:35.474Z,9.10
2022-12-28T10:53:25.774Z,8.93
2022-12-28T10:56:31.426Z,8.47
2022-12-28T10:59:35.144Z,8.77
2022-12-28T11:02:38.991Z,8.20
2022-12-28T11:05:44.360Z,8.87
2022-12-28T11:09:02.942Z,8.27
2022-12-28T11:12:18.861Z,8.83
2022-12-28T11:15:26.158Z,8.07
2022-12-28T11:18:36.236Z,7.13
2022-12-28T11:21:44.642Z,7.13
2022-12-28T11:24:48.530Z,6.23
2022-12-28T11:27:52.252Z,6.73
2022-12-28T11:30:56.297Z,12.17
2022-12-28T11:34:03.681Z,9.30
2022-12-28T11:37:14.501Z,15.60
2022-12-28T11:40:49.719Z,7.83
2022-12-28T11:43:55.244Z,9.87
2022-12-28T11:47:03.998Z,11.67
2022-12-28T11:50:42.858Z,9.80
2022-12-28T11:53:58.180Z,13.13
2022-12-28T11:57:01.948Z,9.40
2022-12-28T12:00:41.586Z,8.67
2022-12-28T12:04:25.059Z,9.40
2022-12-28T12:07:49.408Z,9.87
2022-12-28T12:11:33.637Z,11.27
2022-12-28T12:14:41.173Z,10.57
2022-12-28T12:17:49.160Z,10.87
2022-12-28T12:21:01.266Z,10.03
2022-12-28T12:24:18.811Z,10.30
2022-12-28T12:27:40.766Z,9.60
2022-12-28T12:30:46.814Z,10.40
2022-12-28T12:33:54.133Z,12.13
2022-12-28T12:37:13.752Z,9.50
2022-12-28T12:40:51.882Z,11.93
2022-12-28T12:44:18.933Z,10.03
2022-12-28T12:47:59.689Z,10.80
2022-12-28T12:51:16.682Z,8.50
2022-12-28T12:54:34.819Z,6.97
2022-12-28T12:57:50.967Z,7.23
2022-12-28T13:01:21.489Z,7.60
2022-12-28T13:04:28.911Z,6.90
2022-12-28T13:07:32.883Z,8.43
2022-12-28T13:10:39.299Z,8.13
2022-12-28T13:13:46.965Z,8.10
2022-12-28T13:16:54.816Z,7.37
2022-12-28T13:20:12.719Z,7.53
2022-12-28T13:23:17.851Z,9.87
2022-12-28T13:26:28.476Z,9.20
2022-12-28T13:29:36.244Z,8.17
2022-12-28T13:32:52.677Z,7.53
2022-12-28T13:36:07.843Z,7.33
2022-12-28T13:39:14.566Z,6.97
2022-12-28T13:42:20.389Z,7.07
2022-12-28T13:45:24.422Z,7.30
2022-12-28T13:48:32.403Z,8.03
2022-12-28T13:51:39.571Z,8.70
2022-12-28T13:54:48.358Z,13.20
2022-12-28T13:57:59.909Z,11.07
2022-12-28T14:01:06.530Z,12.13
2022-12-28T14:07:39.389Z,10.40
2022-12-28T14:10:43.910Z,9.40
2022-12-28T14:13:48.011Z,10.43
2022-12-28T14:16:52.305Z,9.53
2022-12-28T14:19:58.715Z,7.60
2022-12-28T14:23:22.770Z,8.63
2022-12-28T14:26:26.670Z,6.97
2022-12-28T14:29:32.787Z,7.00
2022-12-28T14:32:42.583Z,6.50
2022-12-28T14:35:51.179Z,7.53
2022-12-28T14:39:01.287Z,9.27
2022-12-28T14:42:19.815Z,7.83
2022-12-28T14:45:36.430Z,7.77
2022-12-28T14:49:01.301Z,9.30
2022-12-28T14:52:44.790Z,8.13
2022-12-28T14:55:58.873Z,8.53
2022-12-28T14:59:03.496Z,9.37
2022-12-28T15:02:07.679Z,12.67
2022-12-28T15:05:40.374Z,11.07
2022-12-28T15:08:49.170Z,9.90
2022-12-28T15:12:11.650Z,11.80
2022-12-28T15:15:15.488Z,13.00
2022-12-28T15:18:19.323Z,14.17
2022-12-28T15:21:24.753Z,10.80
2022-12-28T15:24:33.768Z,13.70
2022-12-28T15:27:39.564Z,11.07
2022-12-28T15:30:43.727Z,13.53
2022-12-28T15:33:48.646Z,9.43
2022-12-28T15:36:52.992Z,10.77
2022-12-28T15:39:58.125Z,6.70
2022-12-28T15:43:02.349Z,6.07
2022-12-28T15:46:06.331Z,6.93
2022-12-28T15:49:13.269Z,8.53
2022-12-28T15:52:17.006Z,7.03
2022-12-28T15:55:22.220Z,9.63
2022-12-28T15:58:26.020Z,7.17
2022-12-28T16:01:31.457Z,7.03
2022-12-28T16:04:35.377Z,9.87
2022-12-28T16:07:39.152Z,7.73
2022-12-28T16:10:44.461Z,9.47
2022-12-28T16:13:52.934Z,10.20
2022-12-28T16:16:56.801Z,11.33
2022-12-28T16:20:00.565Z,10.60
2022-12-28T16:23:04.398Z,9.50
2022-12-28T16:26:10.731Z,7.77
2022-12-28T16:29:14.443Z,8.07
2022-12-28T16:32:18.142Z,7.50
2022-12-28T16:35:21.875Z,6.57
2022-12-28T16:38:28.522Z,6.90
2022-12-28T16:41:36.864Z,6.80
2022-12-28T16:44:41.710Z,6.27
2022-12-28T16:47:45.479Z,7.70
2022-12-28T16:50:59.580Z,6.70
2022-12-28T16:54:03.460Z,7.70
2022-12-28T16:57:08.569Z,8.37
2022-12-28T17:00:14.150Z,10.30
2022-12-28T17:03:18.052Z,8.83
2022-12-28T17:06:21.732Z,9.50
2022-12-28T17:09:25.602Z,9.60
2022-12-28T17:12:31.017Z,9.23
2022-12-28T17:15:34.794Z,10.80
2022-12-28T17:18:38.612Z,9.97
2022-12-28T17:21:42.363Z,11.10
2022-12-28T17:24:46.151Z,9.40
2022-12-28T17:27:51.299Z,9.80
2022-12-28T17:31:05.692Z,9.87
2022-12-28T17:34:12.339Z,12.20
2022-12-28T17:37:16.094Z,11.00
2022-12-28T17:40:20.335Z,15.87
2022-12-28T17:43:25.572Z,17.97
2022-12-28T17:46:30.765Z,13.23
2022-12-28T17:49:34.693Z,12.70
2022-12-28T17:52:38.681Z,12.90
2022-12-28T17:55:42.433Z,12.77
2022-12-28T17:58:48.385Z,13.13
2022-12-28T18:01:52.327Z,10.23
2022-12-28T18:04:56.237Z,10.87
2022-12-28T18:07:59.958Z,10.50
2022-12-28T18:11:04.043Z,11.30
2022-12-28T18:14:09.230Z,13.07
2022-12-28T18:17:13.091Z,14.93
2022-12-28T18:20:17.514Z,13.53
2022-12-28T18:23:21.251Z,16.17
2022-12-28T18:26:26.979Z,15.97
2022-12-28T18:29:32.163Z,19.50
2022-12-28T18:32:36.070Z,23.17
2022-12-28T18:35:39.773Z,19.93
2022-12-28T18:38:44.113Z,22.70
2022-12-28T18:41:47.904Z,18.40
2022-12-28T18:44:53.365Z,16.53
2022-12-28T18:47:57.152Z,17.23
2022-12-28T18:51:04.005Z,14.30
2022-12-28T18:54:07.990Z,13.53
2022-12-28T18:57:11.944Z,12.70
2022-12-28T19:00:18.184Z,12.27
2022-12-28T19:03:22.349Z,13.67
2022-12-28T19:06:27.221Z,13.90
2022-12-28T19:09:30.970Z,13.20
2022-12-28T19:12:34.884Z,14.93
2022-12-28T19:15:40.110Z,13.60
2022-12-28T19:18:43.983Z,11.87
2022-12-28T19:21:47.908Z,11.47
2022-12-28T19:24:52.105Z,10.97
2022-12-28T19:27:56.985Z,10.93
2022-12-28T19:31:04.976Z,10.40
2022-12-28T19:34:09.020Z,11.33
2022-12-28T19:37:12.881Z,10.70
2022-12-28T19:40:16.791Z,11.50
2022-12-28T19:43:20.612Z,14.17
2022-12-28T19:46:31.566Z,13.80
2022-12-28T19:49:35.765Z,14.40
2022-12-28T19:52:39.527Z,16.20
2022-12-28T19:55:43.252Z,19.40
2022-12-28T19:58:47.992Z,21.97
2022-12-28T20:01:53.363Z,29.67
2022-12-28T20:04:57.290Z,32.67
2022-12-28T20:08:00.977Z,31.70
2022-12-28T20:11:05.728Z,24.70
2022-12-28T20:14:09.829Z,19.57
2022-12-28T20:17:15.032Z,24.47
2022-12-28T20:20:23.732Z,21.17
2022-12-28T20:23:30.885Z,21.10
2022-12-28T20:26:34.566Z,21.00
2022-12-28T20:29:38.487Z,20.50
2022-12-28T20:32:45.082Z,18.30
2022-12-28T20:35:57.752Z,20.23
2022-12-28T20:39:01.612Z,19.07
2022-12-28T20:42:22.828Z,17.47
2022-12-28T20:45:26.687Z,17.53
2022-12-28T20:48:31.922Z,16.87
2022-12-28T20:51:35.711Z,20.40
2022-12-28T20:54:39.473Z,16.83
2022-12-28T20:57:43.326Z,16.00
2022-12-28T21:00:47.198Z,14.73
2022-12-28T21:03:52.538Z,16.10
2022-12-28T21:06:56.259Z,15.80
2022-12-28T21:10:00.322Z,16.97
2022-12-28T21:13:03.961Z,14.33
2022-12-28T21:16:08.824Z,14.93
2022-12-28T21:19:14.168Z,15.53
2022-12-28T21:22:18.037Z,16.40
2022-12-28T21:25:21.878Z,17.07
2022-12-28T21:28:25.592Z,16.67
2022-12-28T21:31:29.398Z,18.27
2022-12-28T21:34:34.646Z,16.40
2022-12-28T21:37:38.424Z,17.13
2022-12-28T21:40:42.182Z,17.37
2022-12-28T21:43:45.897Z,16.90
2022-12-28T21:46:51.436Z,17.07
2022-12-28T21:49:56.647Z,17.60
2022-12-28T21:53:00.280Z,17.57
2022-12-28T21:56:03.925Z,17.63
2022-12-28T21:59:08.319Z,18.83
2022-12-28T22:02:34.362Z,19.47
2022-12-28T22:05:56.728Z,20.73
2022-12-28T22:09:17.687Z,17.97
2022-12-28T22:12:37.409Z,19.73
2022-12-28T22:15:53.032Z,16.43
2022-12-28T22:19:04.183Z,19.13
2022-12-28T22:22:09.651Z,18.10
2022-12-28T22:25:14.624Z,17.97
2022-12-28T22:28:18.360Z,15.60
2022-12-28T22:31:22.193Z,14.83
2022-12-28T22:34:26.036Z,15.23
2022-12-28T22:37:31.333Z,16.97
2022-12-28T22:40:35.030Z,17.80
2022-12-28T22:43:39.401Z,17.13
2022-12-28T22:46:43.135Z,16.07
2022-12-28T22:49:47.072Z,16.20
2022-12-28T22:52:52.303Z,14.50
2022-12-28T22:55:59.577Z,19.60
2022-12-28T22:59:05.138Z,33.03
2022-12-28T23:02:09.389Z,31.17
2022-12-28T23:05:13.269Z,15.13
2022-12-28T23:08:18.760Z,12.30
2022-12-28T23:11:40.942Z,13.33
2022-12-28T23:15:01.774Z,14.13
2022-12-28T23:18:19.368Z,14.17
2022-12-28T23:21:42.730Z,14.40
2022-12-28T23:25:05.458Z,14.17
2022-12-28T23:28:12.392Z,12.80
2022-12-28T23:31:16.179Z,12.37
2022-12-28T23:34:20.023Z,11.47
2022-12-28T23:37:23.942Z,10.20
2022-12-28T23:40:29.646Z,10.60
2022-12-28T23:43:33.356Z,9.83
2022-12-28T23:46:37.090Z,9.13
2022-12-28T23:49:40.964Z,10.53
2022-12-28T23:52:45.397Z,10.30
2022-12-28T23:55:50.617Z,9.37
2022-12-28T23:58:54.564Z,9.27
